createdAt,value
2022-12-05T00:02:51.377Z,100667.41
2022-12-05T00:07:58.241Z,100668.10
2022-12-05T00:13:07.363Z,100665.85
2022-12-05T00:18:10.844Z,100657.39
2022-12-05T00:23:15.779Z,100651.64
2022-12-05T00:28:19.768Z,100645.19
2022-12-05T00:33:23.931Z,100635.87
2022-12-05T00:38:28.675Z,100644.35
2022-12-05T00:43:33.633Z,100646.89
2022-12-05T00:48:38.094Z,100641.69
2022-12-05T00:53:42.002Z,100639.02
2022-12-05T00:58:45.915Z,100648.85
2022-12-05T01:04:04.538Z,100656.66
2022-12-05T01:09:18.439Z,100658.42
2022-12-05T01:14:23.618Z,100657.71
2022-12-05T01:19:31.805Z,100658.00
2022-12-05T01:24:35.384Z,100652.33
2022-12-05T01:29:38.978Z,100660.67
2022-12-05T01:34:43.774Z,100657.25
2022-12-05T01:39:47.034Z,100651.37
2022-12-05T01:44:50.499Z,100642.59
2022-12-05T01:49:54.796Z,100642.45
2022-12-05T01:55:01.929Z,100643.45
2022-12-05T02:00:17.891Z,100643.98
2022-12-05T02:05:26.309Z,100637.63
2022-12-05T02:10:32.015Z,100633.48
2022-12-05T02:15:52.374Z,100632.61
2022-12-05T02:21:21.931Z,100628.70
2022-12-05T02:27:08.073Z,100621.91
2022-12-05T02:32:31.382Z,100616.35
2022-12-05T02:37:48.214Z,100625.95
2022-12-05T02:43:06.165Z,100625.06
2022-12-05T02:48:12.726Z,100623.23
2022-12-05T02:53:17.350Z,100622.07
2022-12-05T02:58:32.340Z,100622.44
2022-12-05T03:03:39.042Z,100616.96
2022-12-05T03:08:53.985Z,100613.84
2022-12-05T03:14:01.567Z,100609.81
2022-12-05T03:19:17.064Z,100611.38
2022-12-05T03:24:21.381Z,100609.48
2022-12-05T03:29:58.844Z,100604.61
2022-12-05T03:35:22.577Z,100600.66
2022-12-05T03:40:34.986Z,100601.77
2022-12-05T03:45:51.325Z,100595.63
2022-12-05T03:50:58.871Z,100597.34
2022-12-05T03:56:08.087Z,100600.52
2022-12-05T04:01:12.460Z,100597.64
2022-12-05T04:06:27.905Z,100589.98
2022-12-05T04:11:35.709Z,100574.08
2022-12-05T04:17:02.288Z,100576.20
2022-12-05T04:22:05.657Z,100584.84
2022-12-05T04:27:43.853Z,100591.19
2022-12-05T04:32:50.177Z,100591.30
2022-12-05T04:37:58.901Z,100588.17
2022-12-05T04:43:03.782Z,100586.33
2022-12-05T04:48:17.256Z,100583.83
2022-12-05T04:53:22.648Z,100587.52
2022-12-05T04:58:27.301Z,100587.56
2022-12-05T05:03:51.497Z,100590.39
2022-12-05T05:08:57.631Z,100603.45
2022-12-05T05:14:03.500Z,100602.59
2022-12-05T05:19:08.697Z,100605.03
2022-12-05T05:24:12.927Z,100602.55
2022-12-05T05:29:16.806Z,100597.05
2022-12-05T05:34:20.234Z,100603.00
2022-12-05T05:39:27.108Z,100609.52
2022-12-05T05:44:30.373Z,100619.99
2022-12-05T05:49:33.877Z,100621.68
2022-12-05T05:54:38.190Z,100624.16
2022-12-05T05:59:41.719Z,100613.13
2022-12-05T06:04:47.997Z,100613.39
2022-12-05T06:09:53.336Z,100623.55
2022-12-05T06:14:58.168Z,100621.66
2022-12-05T06:20:02.807Z,100618.00
2022-12-05T06:25:10.142Z,100609.25
2022-12-05T06:30:47.299Z,100626.70
2022-12-05T06:36:11.163Z,100623.02
2022-12-05T06:41:24.058Z,100616.85
2022-12-05T06:46:39.523Z,100616.75
2022-12-05T06:51:57.239Z,100622.73
2022-12-05T06:57:01.341Z,100619.29
2022-12-05T07:02:08.670Z,100622.29
2022-12-05T07:07:17.115Z,100616.63
2022-12-05T07:12:27.976Z,100605.18
2022-12-05T07:17:31.662Z,100603.19
2022-12-05T07:22:36.445Z,100605.80
2022-12-05T07:27:40.478Z,100603.73
2022-12-05T07:32:43.847Z,100608.43
2022-12-05T07:37:47.001Z,100613.69
2022-12-05T07:42:51.155Z,100619.70
2022-12-05T07:47:58.914Z,100626.39
2022-12-05T07:53:03.977Z,100630.98
2022-12-05T07:58:07.446Z,100632.69
2022-12-05T08:03:11.575Z,100630.67
2022-12-05T08:08:14.971Z,100634.79
2022-12-05T08:13:22.848Z,100642.70
2022-12-05T08:18:29.838Z,100644.35
2022-12-05T08:23:37.083Z,100639.56
2022-12-05T08:28:43.803Z,100641.73
2022-12-05T08:33:57.229Z,100648.88
2022-12-05T08:39:05.045Z,100649.02
2022-12-05T08:44:16.540Z,100658.52
2022-12-05T08:49:20.282Z,100658.41
2022-12-05T08:54:24.129Z,100659.59
2022-12-05T08:59:28.250Z,100656.67
2022-12-05T09:04:34.359Z,100648.83
2022-12-05T09:09:38.502Z,100646.05
2022-12-05T09:14:42.411Z,100644.76
2022-12-05T09:19:45.816Z,100646.98
2022-12-05T09:24:49.591Z,100642.13
2022-12-05T09:29:52.932Z,100638.20
2022-12-05T09:34:56.476Z,100635.32
2022-12-05T09:40:00.299Z,100629.62
2022-12-05T09:45:17.817Z,100627.83
2022-12-05T09:50:34.191Z,100622.61
2022-12-05T09:55:59.043Z,100621.00
2022-12-05T10:01:06.759Z,100614.94
2022-12-05T10:06:19.029Z,100618.24
2022-12-05T10:11:40.271Z,100610.19
2022-12-05T10:16:55.378Z,100605.88
2022-12-05T10:22:04.474Z,100606.61
2022-12-05T10:27:11.623Z,100602.15
2022-12-05T10:32:30.949Z,100602.83
2022-12-05T10:37:34.830Z,100598.02
2022-12-05T10:42:39.022Z,100595.85
2022-12-05T10:47:42.467Z,100591.28
2022-12-05T10:52:47.252Z,100592.79
2022-12-05T10:57:53.572Z,100596.53
2022-12-05T11:02:57.416Z,100599.14
2022-12-05T11:08:00.991Z,100600.73
2022-12-05T11:13:15.560Z,100597.56
2022-12-05T11:18:28.653Z,100594.14
2022-12-05T11:23:31.989Z,100596.10
2022-12-05T11:28:37.566Z,100590.35
2022-12-05T11:33:41.854Z,100587.98
2022-12-05T11:38:45.284Z,100581.48
2022-12-05T11:43:54.292Z,100573.79
2022-12-05T11:49:04.192Z,100579.88
2022-12-05T12:00:18.837Z,100571.33
2022-12-05T12:05:48.390Z,100568.32
2022-12-05T12:11:14.460Z,100565.73
2022-12-05T12:16:35.945Z,100562.77
2022-12-05T12:21:52.213Z,100560.42
2022-12-05T12:27:34.682Z,100559.09
2022-12-05T12:32:55.111Z,100554.24
2022-12-05T12:38:32.520Z,100554.29
2022-12-05T12:43:55.240Z,100549.13
2022-12-05T12:49:35.877Z,100552.12
2022-12-05T12:55:09.490Z,100555.30
2022-12-05T13:00:24.718Z,100555.59
2022-12-05T13:05:56.597Z,100552.15
2022-12-05T13:11:03.209Z,100556.34
2022-12-05T13:16:08.996Z,100560.16
2022-12-05T13:21:21.843Z,100561.10
2022-12-05T13:26:47.568Z,100566.80
2022-12-05T13:31:57.140Z,100568.09
2022-12-05T13:37:53.778Z,100568.63
2022-12-05T13:43:08.117Z,100567.58
2022-12-05T13:48:21.987Z,100570.79
2022-12-05T13:54:01.946Z,100570.20
2022-12-05T13:59:10.162Z,100566.83
2022-12-05T14:04:50.728Z,100569.42
2022-12-05T14:09:56.046Z,100566.18
2022-12-05T14:15:02.035Z,100567.63
2022-12-05T14:20:39.592Z,100568.80
2022-12-05T14:26:32.548Z,100560.05
2022-12-05T14:32:02.532Z,100549.45
2022-12-05T14:37:37.359Z,100550.79
2022-12-05T14:43:09.168Z,100554.83
2022-12-05T14:48:16.833Z,100552.90
2022-12-05T14:53:32.367Z,100551.10
2022-12-05T14:58:55.974Z,100558.30
2022-12-05T15:04:24.367Z,100563.46
2022-12-05T15:09:40.765Z,100563.18
2022-12-05T15:14:50.402Z,100561.80
2022-12-05T15:20:09.012Z,100554.48
2022-12-05T15:25:24.465Z,100554.20
2022-12-05T15:30:30.287Z,100557.38
2022-12-05T15:35:34.484Z,100559.83
2022-12-05T15:40:38.957Z,100550.16
2022-12-05T15:45:42.468Z,100552.03
2022-12-05T15:50:50.484Z,100552.63
2022-12-05T15:56:05.916Z,100547.14
2022-12-05T16:01:20.765Z,100547.04
2022-12-05T16:06:41.945Z,100553.61
2022-12-05T16:11:59.416Z,100558.43
2022-12-05T16:17:38.247Z,100565.01
2022-12-05T16:22:50.097Z,100559.60
2022-12-05T16:28:17.288Z,100559.31
2022-12-05T16:33:21.181Z,100567.85
2022-12-05T16:38:32.339Z,100571.52
2022-12-05T16:43:56.488Z,100574.43
2022-12-05T16:49:24.155Z,100571.55
2022-12-05T16:54:31.183Z,100572.11
2022-12-05T16:59:47.594Z,100573.35
2022-12-05T17:05:18.022Z,100579.06
2022-12-05T17:10:27.389Z,100579.99
2022-12-05T17:15:33.193Z,100584.06
2022-12-05T17:20:38.423Z,100579.36
2022-12-05T17:25:54.426Z,100579.25
2022-12-05T17:30:59.430Z,100577.09
2022-12-05T17:36:03.501Z,100578.66
2022-12-05T17:41:17.335Z,100586.16
2022-12-05T17:46:21.633Z,100588.66
2022-12-05T17:51:26.225Z,100589.82
2022-12-05T17:56:32.116Z,100591.05
2022-12-05T18:01:38.558Z,100585.98
2022-12-05T18:06:43.988Z,100586.33
2022-12-05T18:11:47.917Z,100584.74
2022-12-05T18:17:00.289Z,100584.50
2022-12-05T18:22:09.478Z,100577.39
2022-12-05T18:27:13.522Z,100580.61
2022-12-05T18:32:21.158Z,100585.52
2022-12-05T18:37:28.680Z,100580.43
2022-12-05T18:42:37.854Z,100583.32
2022-12-05T18:47:44.362Z,100585.92
2022-12-05T18:52:51.629Z,100583.54
2022-12-05T18:58:00.544Z,100582.30
2022-12-05T19:03:19.472Z,100572.92
2022-12-05T19:08:27.705Z,100570.96
2022-12-05T19:13:33.549Z,100567.09
2022-12-05T19:18:40.778Z,100569.90
2022-12-05T19:23:45.559Z,100568.66
2022-12-05T19:28:52.580Z,100567.64
2022-12-05T19:33:58.754Z,100569.48
2022-12-05T19:39:11.063Z,100570.16
2022-12-05T19:44:18.228Z,100573.15
2022-12-05T19:49:25.578Z,100570.68
2022-12-05T19:54:29.217Z,100569.60
2022-12-05T20:00:16.564Z,100572.93
2022-12-05T20:05:33.993Z,100572.09
2022-12-05T20:10:45.354Z,100562.55
2022-12-05T20:15:51.364Z,100559.02
2022-12-05T20:21:01.953Z,100558.06
2022-12-05T20:26:15.896Z,100561.91
2022-12-05T20:31:33.495Z,100562.61
2022-12-05T20:36:37.938Z,100557.94
2022-12-05T20:41:41.616Z,100554.48
2022-12-05T20:46:45.747Z,100549.88
2022-12-05T20:51:49.713Z,100556.17
2022-12-05T20:56:56.532Z,100561.84
2022-12-05T21:02:04.587Z,100565.42
2022-12-05T21:07:08.767Z,100567.79
2022-12-05T21:12:35.308Z,100569.02
2022-12-05T21:17:52.423Z,100566.09
2022-12-05T21:23:21.070Z,100556.83
2022-12-05T21:28:48.274Z,100552.16
2022-12-05T21:34:12.517Z,100552.77
2022-12-05T21:39:49.756Z,100548.55
2022-12-05T21:45:02.783Z,100546.61
2022-12-05T21:50:29.237Z,100552.30
2022-12-05T21:55:54.277Z,100552.63
2022-12-05T22:01:36.996Z,100547.82
2022-12-05T22:06:58.892Z,100543.17
2022-12-05T22:12:09.914Z,100538.10
2022-12-05T22:17:33.340Z,100528.79
2022-12-05T22:22:42.592Z,100522.92
2022-12-05T22:27:59.725Z,100522.49
2022-12-05T22:33:04.153Z,100525.13
2022-12-05T22:38:08.892Z,100521.97
2022-12-05T22:43:16.319Z,100523.59
2022-12-05T22:48:27.648Z,100525.88
2022-12-05T22:53:59.221Z,100519.78
2022-12-05T22:59:03.233Z,100501.54
2022-12-05T23:04:18.889Z,100494.48
2022-12-05T23:09:26.612Z,100489.95
2022-12-05T23:14:36.323Z,100485.14
2022-12-05T23:19:45.427Z,100476.02
2022-12-05T23:30:18.501Z,100464.64
2022-12-05T23:35:23.667Z,100450.58
2022-12-05T23:40:27.621Z,100448.40
2022-12-05T23:45:33.764Z,100446.77
2022-12-05T23:50:40.648Z,100440.81
2022-12-05T23:55:44.639Z,100428.73
